Riceville, Mississippi
Current Conditions -  °F | °C
As of 3:53 AM on Wednesday 26 Nov 2014 (Local Time) from KGPT Reporting Station
Clear Clear  
Wind Chill: 36°   Ceiling: Unl
Heat Index: 36°   Visibility: 10mi
Dew Point: 31°   Wind: 3mph
Humidity: 82%   Direction: 320°NW
Pressure: 30.19"   Gusts: NA
Location:  30.7239°N, 89.1669°W
Report Text: KGPT 260953Z AUTO 32003KT 10SM CLR 02/M01 A3019 RMK AO2 SLP223 T00221006 $
Loading
Personal Weather Stations






























Interactive Weather Map New forecast layout! Learn more

10-Day Weather Forecast

Advertisements
Track Severe Weather on mobile